createdAt,value
2023-01-13T00:00:44.785Z,10.23
2023-01-13T00:04:06.728Z,10.19
2023-01-13T00:07:27.987Z,10.17
2023-01-13T00:10:49.323Z,10.17
2023-01-13T00:14:10.592Z,10.17
2023-01-13T00:17:33.210Z,10.16
2023-01-13T00:21:01.934Z,10.16
2023-01-13T00:24:23.775Z,10.12
2023-01-13T00:27:45.451Z,10.17
2023-01-13T00:31:08.534Z,10.11
2023-01-13T00:34:31.743Z,10.15
2023-01-13T00:37:53.506Z,10.19
2023-01-13T00:41:17.212Z,10.19
2023-01-13T00:44:37.411Z,10.23
2023-01-13T00:47:58.536Z,10.20
2023-01-13T00:51:22.744Z,10.23
2023-01-13T00:54:44.510Z,10.21
2023-01-13T00:58:06.227Z,10.24
2023-01-13T01:01:27.397Z,10.25
2023-01-13T01:04:49.137Z,10.26
2023-01-13T01:08:12.301Z,10.26
2023-01-13T01:11:34.157Z,10.28
2023-01-13T01:14:55.636Z,10.30
2023-01-13T01:18:16.968Z,10.29
2023-01-13T01:21:39.005Z,10.32
2023-01-13T01:25:01.716Z,10.29
2023-01-13T01:28:23.413Z,10.32
2023-01-13T01:31:44.782Z,10.30
2023-01-13T01:35:07.627Z,10.32
2023-01-13T01:38:29.021Z,10.25
2023-01-13T01:42:09.329Z,10.26
2023-01-13T01:45:31.583Z,10.26
2023-01-13T01:48:52.944Z,10.32
2023-01-13T01:52:18.030Z,10.34
2023-01-13T01:55:40.592Z,10.36
2023-01-13T01:59:03.697Z,10.39
2023-01-13T02:02:25.624Z,10.40
2023-01-13T02:05:47.487Z,10.40
2023-01-13T02:09:09.665Z,10.41
2023-01-13T02:12:32.111Z,10.42
2023-01-13T02:16:01.025Z,10.41
2023-01-13T02:19:44.920Z,10.42
2023-01-13T02:24:22.087Z,10.43
2023-01-13T02:28:03.822Z,10.44
2023-01-13T02:31:45.017Z,10.42
2023-01-13T02:35:14.492Z,10.41
2023-01-13T02:38:39.667Z,10.40
2023-01-13T02:42:24.427Z,10.39
2023-01-13T02:45:52.765Z,10.38
2023-01-13T02:49:24.574Z,10.38
2023-01-13T02:52:51.296Z,10.36
2023-01-13T02:56:16.479Z,10.33
2023-01-13T02:59:40.192Z,10.33
2023-01-13T03:03:01.930Z,10.36
2023-01-13T03:06:37.877Z,10.37
2023-01-13T03:10:08.376Z,10.36
2023-01-13T03:13:47.039Z,10.37
2023-01-13T03:17:22.458Z,10.35
2023-01-13T03:20:50.487Z,10.32
2023-01-13T03:24:21.321Z,10.32
2023-01-13T03:27:50.059Z,10.32
2023-01-13T03:31:17.005Z,10.31
2023-01-13T03:34:45.956Z,10.31
2023-01-13T03:38:12.987Z,10.33
2023-01-13T03:41:41.469Z,10.32
2023-01-13T03:45:09.212Z,10.32
2023-01-13T03:48:35.409Z,10.35
2023-01-13T03:52:02.967Z,10.36
2023-01-13T03:55:31.137Z,10.37
2023-01-13T03:58:55.528Z,10.38
2023-01-13T04:02:24.043Z,10.40
2023-01-13T04:05:52.712Z,10.40
2023-01-13T04:09:22.074Z,10.41
2023-01-13T04:13:01.745Z,10.42
2023-01-13T04:16:24.981Z,10.39
2023-01-13T04:19:46.837Z,10.38
2023-01-13T04:23:08.698Z,10.40
2023-01-13T04:26:30.208Z,10.42
2023-01-13T04:29:51.361Z,10.41
2023-01-13T04:33:15.425Z,10.44
2023-01-13T04:36:37.275Z,10.43
2023-01-13T04:39:58.841Z,10.38
2023-01-13T04:43:20.183Z,10.40
2023-01-13T04:46:43.099Z,10.44
2023-01-13T04:50:06.910Z,10.45
2023-01-13T04:53:28.406Z,10.44
2023-01-13T04:56:49.766Z,10.46
2023-01-13T05:00:14.172Z,10.48
2023-01-13T05:03:35.654Z,10.51
2023-01-13T05:06:58.906Z,10.51
2023-01-13T05:10:23.653Z,10.51
2023-01-13T05:14:02.906Z,10.51
2023-01-13T05:17:26.341Z,10.51
2023-01-13T05:20:48.022Z,10.49
2023-01-13T05:24:40.087Z,10.48
2023-01-13T05:28:01.851Z,10.46
2023-01-13T05:31:23.143Z,10.45
2023-01-13T05:34:44.660Z,10.47
2023-01-13T05:38:06.026Z,10.45
2023-01-13T05:41:46.298Z,10.45
2023-01-13T05:45:08.793Z,10.43
2023-01-13T05:48:33.027Z,10.41
2023-01-13T05:51:54.422Z,10.44
2023-01-13T05:55:16.326Z,10.44
2023-01-13T05:58:39.224Z,10.42
2023-01-13T06:02:00.546Z,10.39
2023-01-13T06:05:22.251Z,10.38
2023-01-13T06:08:43.551Z,10.38
2023-01-13T06:12:05.599Z,10.42
2023-01-13T06:15:28.834Z,10.41
2023-01-13T06:18:50.711Z,10.42
2023-01-13T06:22:16.711Z,10.44
2023-01-13T06:25:43.751Z,10.42
2023-01-13T06:29:05.621Z,10.41
2023-01-13T06:32:33.467Z,10.33
2023-01-13T06:36:01.078Z,10.32
2023-01-13T06:39:26.120Z,10.25
2023-01-13T06:43:05.158Z,10.25
2023-01-13T06:46:27.077Z,10.27
2023-01-13T06:49:50.462Z,10.26
2023-01-13T06:53:11.966Z,10.23
2023-01-13T06:56:33.342Z,10.11
2023-01-13T06:59:55.155Z,10.12
2023-01-13T07:03:18.963Z,10.10
2023-01-13T07:06:44.054Z,10.10
2023-01-13T07:10:05.758Z,10.09
2023-01-13T07:13:50.404Z,10.10
2023-01-13T07:17:11.921Z,10.09
2023-01-13T07:20:33.919Z,10.10
2023-01-13T07:23:57.162Z,10.06
2023-01-13T07:27:19.097Z,10.06
2023-01-13T07:30:41.290Z,10.02
2023-01-13T07:34:03.189Z,9.98
2023-01-13T07:37:24.837Z,9.98
2023-01-13T07:40:47.917Z,9.96
2023-01-13T07:44:10.871Z,9.95
2023-01-13T07:47:32.518Z,9.94
2023-01-13T07:50:53.931Z,9.94
2023-01-13T07:54:15.734Z,9.91
2023-01-13T07:57:39.093Z,9.90
2023-01-13T08:01:01.090Z,9.90
2023-01-13T08:04:22.903Z,9.88
2023-01-13T08:07:44.615Z,9.85
2023-01-13T08:11:09.164Z,9.83
2023-01-13T08:14:32.366Z,9.85
2023-01-13T08:17:54.148Z,9.82
2023-01-13T08:21:16.930Z,9.82
2023-01-13T08:24:38.861Z,9.82
2023-01-13T08:28:01.204Z,9.84
2023-01-13T08:31:24.145Z,9.86
2023-01-13T08:34:45.809Z,9.88
2023-01-13T08:38:08.116Z,9.89
2023-01-13T08:41:47.450Z,9.92
2023-01-13T08:45:10.825Z,9.93
2023-01-13T08:48:34.530Z,9.97
2023-01-13T08:51:56.336Z,9.99
2023-01-13T08:55:18.299Z,10.03
2023-01-13T08:58:40.938Z,10.06
2023-01-13T09:02:03.541Z,10.09
2023-01-13T09:05:27.251Z,10.11
2023-01-13T09:08:49.111Z,10.15
2023-01-13T09:12:30.042Z,10.15
2023-01-13T09:15:52.325Z,10.16
2023-01-13T09:19:14.209Z,10.17
2023-01-13T09:22:37.647Z,10.19
2023-01-13T09:25:59.156Z,10.20
2023-01-13T09:29:21.700Z,10.19
2023-01-13T09:32:43.158Z,10.23
2023-01-13T09:36:04.395Z,10.27
2023-01-13T09:39:27.587Z,10.31
2023-01-13T09:43:13.302Z,10.32
2023-01-13T09:46:48.092Z,10.35
2023-01-13T09:50:25.073Z,10.35
2023-01-13T09:53:52.391Z,10.37
2023-01-13T09:57:17.016Z,10.39
2023-01-13T10:00:47.062Z,10.40
2023-01-13T10:04:12.715Z,10.40
2023-01-13T10:07:38.123Z,10.41
2023-01-13T10:11:21.713Z,10.39
2023-01-13T10:14:51.348Z,10.40
2023-01-13T10:18:19.383Z,10.39
2023-01-13T10:21:57.740Z,10.39
2023-01-13T10:25:43.587Z,10.40
2023-01-13T10:29:24.753Z,10.41
2023-01-13T10:32:51.478Z,10.38
2023-01-13T10:36:17.488Z,10.35
2023-01-13T10:39:44.796Z,10.33
2023-01-13T10:43:07.022Z,10.33
2023-01-13T10:46:29.988Z,10.33
2023-01-13T10:50:19.356Z,10.33
2023-01-13T10:53:51.700Z,10.32
2023-01-13T10:57:16.180Z,10.33
2023-01-13T11:00:38.146Z,10.33
2023-01-13T11:04:00.071Z,10.35
2023-01-13T11:07:29.872Z,10.33
2023-01-13T11:10:54.676Z,10.33
2023-01-13T11:14:36.761Z,10.35
2023-01-13T11:18:05.132Z,10.35
2023-01-13T11:21:32.869Z,10.35
2023-01-13T11:25:01.423Z,10.33
2023-01-13T11:28:38.516Z,10.33
2023-01-13T11:32:10.392Z,10.34
2023-01-13T11:35:37.020Z,10.34
2023-01-13T11:39:12.026Z,10.33
2023-01-13T11:42:41.299Z,10.33
2023-01-13T11:46:02.889Z,10.33
2023-01-13T11:49:28.280Z,10.33
2023-01-13T11:53:07.601Z,10.35
2023-01-13T11:56:42.434Z,10.35
2023-01-13T12:00:28.107Z,10.34
2023-01-13T12:03:54.755Z,10.36
2023-01-13T12:07:23.262Z,10.33
2023-01-13T12:10:56.886Z,10.36
2023-01-13T12:14:28.229Z,10.37
2023-01-13T12:18:05.240Z,10.39
2023-01-13T12:21:29.765Z,10.38
2023-01-13T12:24:56.259Z,10.37
2023-01-13T12:28:23.934Z,10.38
2023-01-13T12:31:48.481Z,10.40
2023-01-13T12:35:29.075Z,10.41
2023-01-13T12:38:55.965Z,10.42
2023-01-13T12:42:42.347Z,10.38
2023-01-13T12:46:45.384Z,10.34
2023-01-13T12:50:54.746Z,10.36
2023-01-13T12:54:53.850Z,10.35
2023-01-13T12:58:17.023Z,10.37
2023-01-13T13:01:39.064Z,10.36
2023-01-13T13:05:39.449Z,10.34
2023-01-13T13:09:04.344Z,10.32
2023-01-13T13:13:18.922Z,10.32
2023-01-13T13:16:49.902Z,10.32
2023-01-13T13:20:50.730Z,10.35
2023-01-13T13:24:12.511Z,10.34
2023-01-13T13:27:42.017Z,10.26
2023-01-13T13:31:25.788Z,10.31
2023-01-13T13:34:56.878Z,10.28
2023-01-13T13:38:47.438Z,10.31
2023-01-13T13:42:34.524Z,10.32
2023-01-13T13:46:13.454Z,10.35
2023-01-13T13:49:41.599Z,10.36
2023-01-13T13:53:07.165Z,10.34
2023-01-13T13:56:30.239Z,10.34
2023-01-13T13:59:55.643Z,10.28
2023-01-13T14:03:24.801Z,10.30
2023-01-13T14:06:56.342Z,10.35
2023-01-13T14:10:21.276Z,10.38
2023-01-13T14:13:42.702Z,10.38
2023-01-13T14:17:05.844Z,10.36
2023-01-13T14:20:29.060Z,10.34
2023-01-13T14:23:55.537Z,10.24
2023-01-13T14:27:18.960Z,10.23
2023-01-13T14:30:41.681Z,10.25
2023-01-13T14:34:32.572Z,10.25
2023-01-13T14:37:51.056Z,10.22
2023-01-13T14:41:20.122Z,10.23
2023-01-13T14:44:45.959Z,10.25
2023-01-13T14:48:10.274Z,10.19
2023-01-13T14:51:32.834Z,10.14
2023-01-13T14:54:55.823Z,10.14
2023-01-13T14:58:29.628Z,10.14
2023-01-13T15:01:52.163Z,10.16
2023-01-13T15:05:47.704Z,10.17
2023-01-13T15:09:13.145Z,10.18
2023-01-13T15:12:39.317Z,10.18
2023-01-13T15:16:04.575Z,10.18
2023-01-13T15:19:26.134Z,10.14
2023-01-13T15:22:47.631Z,10.11
2023-01-13T15:26:21.031Z,10.10
2023-01-13T15:29:42.656Z,10.11
2023-01-13T15:33:06.301Z,10.08
2023-01-13T15:36:29.710Z,10.10
2023-01-13T15:39:51.966Z,10.09
2023-01-13T15:43:33.474Z,10.09
2023-01-13T15:46:55.126Z,10.07
2023-01-13T15:50:20.837Z,10.04
2023-01-13T15:53:42.842Z,10.05
2023-01-13T15:57:04.780Z,10.06
2023-01-13T16:00:26.598Z,10.06
2023-01-13T16:03:48.127Z,10.08
2023-01-13T16:07:16.322Z,10.05
2023-01-13T16:10:37.645Z,10.03
2023-01-13T16:13:58.904Z,10.01
2023-01-13T16:17:22.528Z,9.96
2023-01-13T16:20:43.976Z,9.98
2023-01-13T16:24:07.070Z,9.99
2023-01-13T16:27:30.474Z,9.97
2023-01-13T16:30:52.787Z,9.99
2023-01-13T16:34:14.645Z,9.97
2023-01-13T16:37:36.296Z,9.99
2023-01-13T16:40:59.653Z,9.99
2023-01-13T16:44:20.966Z,9.97
2023-01-13T16:47:42.438Z,9.99
2023-01-13T16:51:05.033Z,9.96
2023-01-13T16:54:26.344Z,9.97
2023-01-13T16:57:49.667Z,9.93
2023-01-13T17:01:20.125Z,9.91
2023-01-13T17:04:41.605Z,9.86
2023-01-13T17:08:03.628Z,9.82
2023-01-13T17:11:25.523Z,9.82
2023-01-13T17:14:48.259Z,9.84
2023-01-13T17:18:09.622Z,9.76
2023-01-13T17:21:31.410Z,9.73
2023-01-13T17:24:53.287Z,9.70
2023-01-13T17:28:15.092Z,9.66
2023-01-13T17:31:38.222Z,9.64
2023-01-13T17:35:02.474Z,9.60
2023-01-13T17:38:24.086Z,9.62
2023-01-13T17:41:46.023Z,9.66
2023-01-13T17:45:09.175Z,9.67
2023-01-13T17:48:32.397Z,9.69
2023-01-13T17:51:53.690Z,9.69
2023-01-13T17:55:15.614Z,9.68
2023-01-13T17:58:37.607Z,9.61
2023-01-13T18:01:59.296Z,9.60
2023-01-13T18:05:22.705Z,9.58
2023-01-13T18:08:44.410Z,9.58
2023-01-13T18:12:06.338Z,9.52
2023-01-13T18:15:27.827Z,9.44
2023-01-13T18:18:51.413Z,9.45
2023-01-13T18:22:32.877Z,9.36
2023-01-13T18:26:12.022Z,9.39
2023-01-13T18:29:33.481Z,9.40
2023-01-13T18:32:55.434Z,9.41
2023-01-13T18:36:17.329Z,9.39
2023-01-13T18:39:40.751Z,9.40
2023-01-13T18:43:02.345Z,9.39
2023-01-13T18:46:24.160Z,9.40
2023-01-13T18:49:46.047Z,9.37
2023-01-13T18:53:08.047Z,9.38
2023-01-13T18:56:31.613Z,9.37
2023-01-13T18:59:53.111Z,9.35
2023-01-13T19:03:29.491Z,9.34
2023-01-13T19:06:52.365Z,9.34
2023-01-13T19:10:14.339Z,9.36
2023-01-13T19:13:37.909Z,9.38
2023-01-13T19:16:59.450Z,9.35
2023-01-13T19:20:22.345Z,9.33
2023-01-13T19:23:44.268Z,9.32
2023-01-13T19:27:06.133Z,9.32
2023-01-13T19:30:29.655Z,9.32
2023-01-13T19:33:51.410Z,9.31
2023-01-13T19:37:13.633Z,9.26
2023-01-13T19:40:35.436Z,9.29
2023-01-13T19:44:14.897Z,9.34
2023-01-13T19:47:40.521Z,9.37
2023-01-13T19:51:02.578Z,9.35
2023-01-13T19:54:24.554Z,9.33
2023-01-13T19:57:45.935Z,9.30
2023-01-13T20:01:09.829Z,9.31
2023-01-13T20:04:38.393Z,9.32
2023-01-13T20:08:00.230Z,9.32
2023-01-13T20:11:31.031Z,9.33
2023-01-13T20:14:52.972Z,9.33
2023-01-13T20:18:14.717Z,9.26
2023-01-13T20:21:39.723Z,9.29
2023-01-13T20:25:01.308Z,9.30
2023-01-13T20:28:23.848Z,9.34
2023-01-13T20:31:45.878Z,9.32
2023-01-13T20:35:08.514Z,9.28
2023-01-13T20:38:36.919Z,9.31
2023-01-13T20:42:16.101Z,9.30
2023-01-13T20:45:37.707Z,9.24
2023-01-13T20:48:59.483Z,9.24
2023-01-13T20:52:21.386Z,9.22
2023-01-13T20:55:44.172Z,9.20
2023-01-13T20:59:06.583Z,9.16
2023-01-13T21:02:28.011Z,9.18
2023-01-13T21:05:49.370Z,9.21
2023-01-13T21:09:11.309Z,9.20
2023-01-13T21:12:51.797Z,9.18
2023-01-13T21:16:13.347Z,9.18
2023-01-13T21:19:34.561Z,9.15
2023-01-13T21:22:56.033Z,9.13
2023-01-13T21:26:19.509Z,9.11
2023-01-13T21:29:44.509Z,9.12
2023-01-13T21:33:06.381Z,9.09
2023-01-13T21:36:29.415Z,9.05
2023-01-13T21:39:51.197Z,8.99
2023-01-13T21:43:31.309Z,8.98
2023-01-13T21:47:11.426Z,8.95
2023-01-13T21:50:32.987Z,8.94
2023-01-13T21:53:54.822Z,8.91
2023-01-13T21:57:16.548Z,8.90
2023-01-13T22:00:39.326Z,8.90
2023-01-13T22:04:14.190Z,8.89
2023-01-13T22:07:37.781Z,8.84
2023-01-13T22:11:00.162Z,8.85
2023-01-13T22:14:22.563Z,8.87
2023-01-13T22:17:45.639Z,8.87
2023-01-13T22:21:08.835Z,8.81
2023-01-13T22:24:30.541Z,8.77
2023-01-13T22:27:55.943Z,8.78
2023-01-13T22:31:20.964Z,8.75
2023-01-13T22:34:42.752Z,8.78
2023-01-13T22:38:05.766Z,8.75
2023-01-13T22:41:27.254Z,8.73
2023-01-13T22:44:48.970Z,8.73
2023-01-13T22:48:10.199Z,8.77
2023-01-13T22:51:32.012Z,8.79
2023-01-13T22:54:55.481Z,8.79
2023-01-13T22:58:17.391Z,8.81
2023-01-13T23:01:39.261Z,8.81
2023-01-13T23:05:00.965Z,8.79
2023-01-13T23:08:22.414Z,8.77
2023-01-13T23:11:47.746Z,8.73
2023-01-13T23:15:09.744Z,8.73
2023-01-13T23:18:31.035Z,8.70
2023-01-13T23:21:52.873Z,8.71
2023-01-13T23:25:14.116Z,8.71
2023-01-13T23:28:37.507Z,8.71
2023-01-13T23:31:59.170Z,8.68
2023-01-13T23:35:21.171Z,8.64
2023-01-13T23:38:43.011Z,8.60
2023-01-13T23:42:04.591Z,8.61
2023-01-13T23:45:27.744Z,8.57
2023-01-13T23:48:50.342Z,8.51
2023-01-13T23:52:12.163Z,8.50
2023-01-13T23:55:33.472Z,8.50
2023-01-13T23:58:56.350Z,8.54
